createdAt,value
2019-05-14T00:04:42.248Z,100648.48
2019-05-14T00:09:45.601Z,100648.00
2019-05-14T00:14:48.582Z,100655.47
2019-05-14T00:20:05.865Z,100653.56
2019-05-14T00:24:56.641Z,100651.22
2019-05-14T00:30:02.263Z,100649.88
2019-05-14T00:35:05.568Z,100628.56
2019-05-14T00:40:08.756Z,100618.56
2019-05-14T00:45:12.020Z,100615.78
2019-05-14T00:50:15.198Z,100617.99
2019-05-14T00:55:18.164Z,100607.72
2019-05-14T01:00:22.011Z,100602.98
2019-05-14T01:05:25.237Z,100599.80
2019-05-14T01:10:31.306Z,100594.11
2019-05-14T01:15:34.639Z,100585.90
2019-05-14T01:20:37.605Z,100591.32
2019-05-14T01:25:42.201Z,100587.70
2019-05-14T01:30:45.482Z,100579.98
2019-05-14T01:35:48.421Z,100569.48
2019-05-14T01:40:52.365Z,100566.00
2019-05-14T01:45:55.989Z,100564.67
2019-05-14T01:51:01.310Z,100565.56
2019-05-14T01:56:05.407Z,100564.52
2019-05-14T02:01:08.477Z,100550.42
2019-05-14T02:06:11.920Z,100549.80
2019-05-14T02:11:15.080Z,100540.24
2019-05-14T02:16:18.068Z,100538.61
2019-05-14T02:21:22.861Z,100540.58
2019-05-14T02:26:25.978Z,100533.73
2019-05-14T02:31:29.288Z,100539.63
2019-05-14T02:36:32.488Z,100528.16
2019-05-14T02:41:38.946Z,100525.70
2019-05-14T02:46:40.810Z,100526.78
2019-05-14T02:51:44.019Z,100518.97
2019-05-14T02:56:49.557Z,100522.70
2019-05-14T03:01:51.874Z,100524.44
2019-05-14T03:06:54.804Z,100517.83
2019-05-14T03:11:59.514Z,100510.28
2019-05-14T03:17:02.893Z,100513.08
2019-05-14T03:22:09.747Z,100510.22
2019-05-14T03:27:10.852Z,100504.05
2019-05-14T03:32:14.176Z,100505.25
2019-05-14T03:37:23.544Z,100509.95
2019-05-14T03:42:24.726Z,100505.03
2019-05-14T03:47:29.803Z,100498.69
2019-05-14T03:52:32.891Z,100503.94
2019-05-14T03:57:35.936Z,100496.06
2019-05-14T04:02:39.258Z,100495.28
2019-05-14T04:07:45.753Z,100502.34
2019-05-14T04:12:51.545Z,100503.29
2019-05-14T04:17:55.620Z,100496.55
2019-05-14T04:23:02.077Z,100495.41
2019-05-14T04:28:11.575Z,100489.21
2019-05-14T04:33:22.285Z,100487.41
2019-05-14T04:38:25.323Z,100488.39
2019-05-14T04:43:29.387Z,100480.52
2019-05-14T04:48:37.616Z,100485.64
2019-05-14T04:53:41.443Z,100481.22
2019-05-14T04:58:44.587Z,100477.56
2019-05-14T05:03:50.285Z,100475.02
2019-05-14T05:08:52.542Z,100471.53
2019-05-14T05:13:55.594Z,100469.06
2019-05-14T05:18:59.436Z,100457.44
2019-05-14T05:24:02.839Z,100450.19
2019-05-14T05:29:07.181Z,100448.58
2019-05-14T05:34:10.722Z,100448.41
2019-05-14T05:39:13.753Z,100454.00
2019-05-14T05:44:18.745Z,100447.40
2019-05-14T05:49:21.781Z,100450.55
2019-05-14T05:54:24.739Z,100438.38
2019-05-14T05:59:29.357Z,100436.10
2019-05-14T06:04:32.678Z,100436.10
2019-05-14T06:09:37.945Z,100437.69
2019-05-14T06:14:40.598Z,100436.44
2019-05-14T06:19:43.637Z,100431.34
2019-05-14T06:24:48.614Z,100433.80
2019-05-14T06:29:55.062Z,100434.48
2019-05-14T06:34:59.554Z,100429.54
2019-05-14T06:40:03.235Z,100432.66
2019-05-14T06:45:10.493Z,100424.42
2019-05-14T06:50:13.512Z,100421.47
2019-05-14T06:55:18.035Z,100406.70
2019-05-14T07:00:22.154Z,100407.55
2019-05-14T07:05:25.215Z,100423.33
2019-05-14T07:10:28.816Z,100418.41
2019-05-14T07:15:32.024Z,100416.59
2019-05-14T07:20:35.107Z,100414.94
2019-05-14T07:25:39.298Z,100407.22
2019-05-14T07:30:42.508Z,100417.74
2019-05-14T07:35:45.590Z,100407.86
2019-05-14T07:40:49.403Z,100406.23
2019-05-14T07:45:52.729Z,100397.72
2019-05-14T07:50:55.732Z,100393.11
2019-05-14T07:55:59.241Z,100384.88
2019-05-14T08:01:02.645Z,100387.85
2019-05-14T08:06:08.080Z,100387.19
2019-05-14T08:11:10.538Z,100389.18
2019-05-14T08:16:13.553Z,100377.68
2019-05-14T08:21:19.049Z,100382.92
2019-05-14T08:26:21.527Z,100370.41
2019-05-14T08:31:24.664Z,100372.73
2019-05-14T08:36:28.628Z,100373.23
2019-05-14T08:41:38.430Z,100362.30
2019-05-14T08:46:44.690Z,100353.81
2019-05-14T08:51:49.201Z,100341.77
2019-05-14T08:56:51.500Z,100334.03
2019-05-14T09:02:02.334Z,100325.11
2019-05-14T09:07:00.222Z,100325.32
2019-05-14T09:12:03.318Z,100311.45
2019-05-14T09:17:06.341Z,100311.65
2019-05-14T09:22:09.715Z,100308.93
2019-05-14T09:27:13.408Z,100302.51
2019-05-14T09:32:19.035Z,100291.52
2019-05-14T09:37:21.434Z,100284.63
2019-05-14T09:42:24.400Z,100285.81
2019-05-14T09:47:28.224Z,100295.12
2019-05-14T09:52:31.526Z,100284.86
2019-05-14T09:57:34.651Z,100286.11
2019-05-14T10:02:39.227Z,100281.92
2019-05-14T10:07:42.711Z,100278.16
2019-05-14T10:12:54.151Z,100267.45
2019-05-14T10:17:50.963Z,100264.59
2019-05-14T10:22:53.942Z,100264.03
2019-05-14T10:27:59.092Z,100262.01
2019-05-14T10:33:09.029Z,100256.66
2019-05-14T10:38:08.825Z,100253.95
2019-05-14T10:43:14.302Z,100245.27
2019-05-14T10:48:18.616Z,100245.57
2019-05-14T10:53:22.198Z,100241.49
2019-05-14T10:58:25.221Z,100242.81
2019-05-14T11:03:30.161Z,100230.40
2019-05-14T11:08:33.138Z,100227.19
2019-05-14T11:13:36.168Z,100231.38
2019-05-14T11:18:39.945Z,100220.70
2019-05-14T11:23:43.282Z,100222.20
2019-05-14T11:28:48.810Z,100225.73
2019-05-14T11:33:51.302Z,100228.20
2019-05-14T11:38:54.281Z,100224.61
2019-05-14T11:43:59.362Z,100217.66
2019-05-14T11:49:02.179Z,100218.16
2019-05-14T11:54:05.191Z,100211.33
2019-05-14T11:59:08.748Z,100206.70
2019-05-14T12:04:11.829Z,100201.31
2019-05-14T12:09:14.902Z,100201.62
2019-05-14T12:14:19.138Z,100213.69
2019-05-14T12:19:22.220Z,100217.25
2019-05-14T12:24:25.242Z,100218.95
2019-05-14T12:29:29.237Z,100214.91
2019-05-14T12:34:32.489Z,100216.55
2019-05-14T12:39:35.657Z,100201.76
2019-05-14T12:44:40.852Z,100195.42
2019-05-14T12:49:43.581Z,100181.58
2019-05-14T12:54:46.600Z,100174.54
2019-05-14T12:59:49.609Z,100171.16
2019-05-14T13:04:52.639Z,100180.84
2019-05-14T13:09:55.630Z,100173.90
2019-05-14T13:14:58.654Z,100168.88
2019-05-14T13:20:01.697Z,100160.42
2019-05-14T13:25:09.768Z,100150.13
2019-05-14T13:30:13.242Z,100149.20
2019-05-14T13:35:19.380Z,100139.91
2019-05-14T13:40:21.739Z,100136.64
2019-05-14T13:45:25.835Z,100129.25
2019-05-14T13:50:29.393Z,100124.41
2019-05-14T13:55:34.770Z,100116.19
2019-05-14T14:00:37.959Z,100111.84
2019-05-14T14:05:40.968Z,100109.97
2019-05-14T14:10:46.364Z,100108.16
2019-05-14T14:15:49.192Z,100110.45
2019-05-14T14:20:52.276Z,100105.72
2019-05-14T14:25:56.172Z,100096.56
2019-05-14T14:31:00.282Z,100097.38
2019-05-14T14:36:03.307Z,100087.17
2019-05-14T14:41:09.730Z,100090.98
2019-05-14T14:46:14.215Z,100090.98
2019-05-14T14:51:18.952Z,100096.70
2019-05-14T14:56:20.985Z,100091.44
2019-05-14T15:01:24.000Z,100084.77
2019-05-14T15:06:30.359Z,100082.69
2019-05-14T15:11:32.030Z,100075.56
2019-05-14T15:16:35.016Z,100073.47
2019-05-14T15:21:38.023Z,100070.52
2019-05-14T15:26:41.135Z,100060.70
2019-05-14T15:31:44.126Z,100057.69
2019-05-14T15:36:49.271Z,100048.59
2019-05-14T15:41:52.040Z,100048.96
2019-05-14T15:46:55.061Z,100048.77
2019-05-14T15:51:58.126Z,100045.75
2019-05-14T15:57:01.196Z,100039.20
2019-05-14T16:02:04.228Z,100032.48
2019-05-14T16:07:09.523Z,100022.48
2019-05-14T16:12:12.430Z,100009.25
2019-05-14T16:17:15.798Z,100013.06
2019-05-14T16:22:19.589Z,100009.28
2019-05-14T16:27:22.676Z,100009.12
2019-05-14T16:32:25.665Z,100009.80
2019-05-14T16:37:28.790Z,100001.59
2019-05-14T16:42:31.814Z,99995.38
2019-05-14T16:47:34.883Z,99992.37
2019-05-14T16:52:42.144Z,99989.44
2019-05-14T16:57:44.865Z,99977.37
2019-05-14T17:02:48.451Z,99968.91
2019-05-14T17:07:51.502Z,99968.22
2019-05-14T17:12:57.680Z,99971.21
2019-05-14T17:17:59.974Z,99969.97
2019-05-14T17:23:03.154Z,99961.88
2019-05-14T17:28:08.496Z,99967.58
2019-05-14T17:33:11.203Z,99961.76
2019-05-14T17:38:15.623Z,99959.11
2019-05-14T17:43:20.152Z,99963.96
2019-05-14T17:48:23.739Z,99966.13
2019-05-14T17:53:29.026Z,99971.35
2019-05-14T17:58:31.939Z,99956.79
2019-05-14T18:03:34.980Z,99959.67
2019-05-14T18:08:38.060Z,99953.65
2019-05-14T18:13:41.066Z,99958.02
2019-05-14T18:18:44.269Z,99957.48
2019-05-14T18:23:49.240Z,99953.45
2019-05-14T18:28:52.118Z,99958.42
2019-05-14T18:33:55.208Z,99958.61
2019-05-14T18:38:58.677Z,99972.09
2019-05-14T18:44:01.910Z,99984.46
2019-05-14T18:49:04.899Z,99994.59
2019-05-14T18:54:08.155Z,99998.71
2019-05-14T18:59:11.165Z,100004.55
2019-05-14T19:04:14.170Z,100001.67
2019-05-14T19:09:18.621Z,99997.97
2019-05-14T19:14:21.951Z,99994.02
2019-05-14T19:19:25.006Z,99990.86
2019-05-14T19:24:28.683Z,99985.25
2019-05-14T19:29:32.195Z,99977.33
2019-05-14T19:34:35.300Z,99965.53
2019-05-14T19:39:38.712Z,99957.56
2019-05-14T19:44:41.885Z,99960.80
2019-05-14T19:49:45.198Z,99952.66
2019-05-14T19:54:48.925Z,99953.47
2019-05-14T19:59:52.168Z,99953.91
2019-05-14T20:04:55.314Z,99951.40
2019-05-14T20:09:58.819Z,99940.67
2019-05-14T20:15:03.771Z,99944.88
2019-05-14T20:20:08.912Z,99946.82
2019-05-14T20:25:12.464Z,99939.83
2019-05-14T20:30:18.813Z,99939.55
2019-05-14T20:35:33.617Z,99939.70
2019-05-14T20:40:28.435Z,99936.48
2019-05-14T20:45:31.797Z,99932.91
2019-05-14T20:50:35.164Z,99930.65
2019-05-14T20:55:38.818Z,99925.16
2019-05-14T21:00:42.071Z,99921.74
2019-05-14T21:05:45.119Z,99918.36
2019-05-14T21:10:49.458Z,99918.36
2019-05-14T21:15:52.775Z,99920.14
2019-05-14T21:20:55.763Z,99908.80
2019-05-14T21:25:58.798Z,99911.43
2019-05-14T21:31:02.201Z,99906.04
2019-05-14T21:36:05.262Z,99901.84
2019-05-14T21:41:08.219Z,99900.46
2019-05-14T21:46:12.431Z,99902.53
2019-05-14T21:51:15.402Z,99897.36
2019-05-14T21:56:21.712Z,99890.16
2019-05-14T22:01:23.620Z,99878.59
2019-05-14T22:06:28.959Z,99874.05
2019-05-14T22:11:31.780Z,99870.48
2019-05-14T22:16:34.781Z,99867.16
2019-05-14T22:21:38.619Z,99863.14
2019-05-14T22:26:42.728Z,99862.23
2019-05-14T22:31:45.739Z,99856.56
2019-05-14T22:36:48.657Z,99854.30
2019-05-14T22:41:51.680Z,99848.54
2019-05-14T22:46:54.695Z,99844.97
2019-05-14T22:51:58.833Z,99849.36
2019-05-14T22:57:03.355Z,99842.39
2019-05-14T23:02:11.003Z,99839.92
2019-05-14T23:07:11.243Z,99832.38
2019-05-14T23:12:14.220Z,99831.64
2019-05-14T23:17:19.572Z,99826.88
2019-05-14T23:22:22.153Z,99831.77
2019-05-14T23:27:25.208Z,99826.31
2019-05-14T23:32:29.379Z,99831.64
2019-05-14T23:37:32.423Z,99819.92
2019-05-14T23:42:35.453Z,99813.66
2019-05-14T23:47:38.605Z,99811.91
2019-05-14T23:52:41.650Z,99800.88
2019-05-14T23:57:45.110Z,99792.28
